Time;durP1;ratioP1;P1;durP2;ratioP2;P2;SDS_P1;SDS_P2;PMS_P1;PMS_P2;Temp;Humidity;BMP_temperature;BMP_pressure;BME280_temperature;BME280_humidity;BME280_pressure;Samples;Min_cycle;Max_cycle;Signal;HPM_P1;HPM_P2
2022/03/23 00:01:37;;;;;;;;;;;4.70;89.00;;;;;;5019495;28;19917;-84
2022/03/23 00:04:03;;;;;;;;;;;4.60;88.80;;;;;;5034557;28;20330;-84
2022/03/23 00:06:28;;;;;;;;;;;4.60;89.10;;;;;;5039005;28;19960;-84
2022/03/23 00:08:54;;;;;;;;;;;4.60;88.80;;;;;;5034934;28;20280;-84
2022/03/23 00:11:20;;;;;;;;;;;4.60;89.20;;;;;;5051616;28;20435;-84
2022/03/23 00:13:46;;;;;;;;;;;4.50;89.80;;;;;;5039687;28;19966;-84
2022/03/23 00:16:12;;;;;;;;;;;4.40;88.80;;;;;;5050960;28;20212;-84
2022/03/23 00:18:37;;;;;;;;;;;4.40;88.30;;;;;;5050537;28;19929;-83
2022/03/23 00:21:03;;;;;;;;;;;4.40;89.00;;;;;;5034915;28;20030;-84
2022/03/23 00:23:28;;;;;;;;;;;4.30;89.80;;;;;;5040120;28;19921;-84
2022/03/23 00:25:54;;;;;;;;;;;4.30;90.40;;;;;;5051032;28;20015;-84
2022/03/23 00:28:20;;;;;;;;;;;4.30;90.50;;;;;;5045854;28;19924;-84
2022/03/23 00:30:47;;;;;;;;;;;4.20;90.70;;;;;;5034146;28;19917;-84
2022/03/23 00:33:14;;;;;;;;;;;4.20;90.80;;;;;;5030295;28;19913;-84
2022/03/23 00:35:40;;;;;;;;;;;4.20;91.20;;;;;;5034366;28;19938;-84
2022/03/23 00:38:06;;;;;;;;;;;4.20;91.60;;;;;;5040265;28;20272;-84
2022/03/23 00:40:32;;;;;;;;;;;4.20;91.80;;;;;;5034111;28;19919;-83
2022/03/23 00:43:01;;;;;;;;;;;4.10;92.00;;;;;;5024860;28;19916;-84
2022/03/23 00:45:30;;;;;;;;;;;4.20;92.20;;;;;;5033977;28;19996;-83
2022/03/23 00:47:56;;;;;;;;;;;4.20;92.30;;;;;;5034390;28;19917;-84
2022/03/23 00:50:23;;;;;;;;;;;4.20;91.60;;;;;;5033485;28;19993;-83
2022/03/23 00:52:49;;;;;;;;;;;4.20;91.10;;;;;;5041215;28;19994;-83
2022/03/23 00:55:15;;;;;;;;;;;4.10;90.70;;;;;;5033550;28;19920;-83
2022/03/23 00:57:41;;;;;;;;;;;4.10;91.10;;;;;;5050423;28;20227;-84
2022/03/23 01:00:12;;;;;;;;;;;4.00;91.30;;;;;;5033217;28;19940;-84
2022/03/23 01:02:41;;;;;;;;;;;4.00;91.70;;;;;;5049520;28;19920;-84
2022/03/23 01:05:08;;;;;;;;;;;3.90;92.40;;;;;;5033219;28;19908;-84
2022/03/23 01:07:34;;;;;;;;;;;3.90;92.50;;;;;;5033636;28;20407;-84
2022/03/23 01:09:59;;;;;;;;;;;3.80;92.40;;;;;;5033579;28;19951;-84
2022/03/23 01:12:25;;;;;;;;;;;3.80;92.70;;;;;;5050171;28;20339;-84
2022/03/23 01:14:51;;;;;;;;;;;3.70;93.30;;;;;;5033184;28;19967;-84
2022/03/23 01:17:16;;;;;;;;;;;3.70;93.60;;;;;;5035496;28;20007;-84
2022/03/23 01:19:42;;;;;;;;;;;3.70;93.60;;;;;;5033019;28;19913;-84
2022/03/23 01:22:08;;;;;;;;;;;3.60;93.90;;;;;;5035096;28;19913;-84
2022/03/23 01:24:34;;;;;;;;;;;3.60;94.40;;;;;;5033160;28;19912;-84
2022/03/23 01:27:01;;;;;;;;;;;3.60;94.30;;;;;;5033678;28;19920;-84
2022/03/23 01:29:27;;;;;;;;;;;3.60;94.60;;;;;;5032537;28;19920;-84
2022/03/23 01:31:53;;;;;;;;;;;3.60;94.60;;;;;;5020183;28;19925;-84
2022/03/23 01:34:18;;;;;;;;;;;3.60;94.40;;;;;;5012367;28;19917;-84
2022/03/23 01:36:44;;;;;;;;;;;3.60;94.70;;;;;;5037510;28;19913;-83
2022/03/23 01:39:10;;;;;;;;;;;3.60;94.60;;;;;;5032983;28;20399;-84
2022/03/23 01:41:36;;;;;;;;;;;3.60;94.20;;;;;;5035581;28;19917;-84
2022/03/23 01:44:11;;;;;;;;;;;3.50;94.00;;;;;;5043615;28;19913;-85
2022/03/23 01:46:37;;;;;;;;;;;3.50;94.00;;;;;;5047990;28;19913;-85
2022/03/23 01:49:02;;;;;;;;;;;3.50;94.50;;;;;;5047356;28;20371;-84
2022/03/23 01:51:28;;;;;;;;;;;3.40;94.80;;;;;;5035457;28;20375;-84
2022/03/23 01:53:53;;;;;;;;;;;3.40;94.70;;;;;;5049344;28;19956;-84
2022/03/23 01:56:19;;;;;;;;;;;3.30;95.20;;;;;;5042580;28;20011;-84
2022/03/23 01:58:44;;;;;;;;;;;3.30;95.30;;;;;;5017624;28;19917;-84
2022/03/23 02:01:10;;;;;;;;;;;3.30;95.20;;;;;;5033795;28;19921;-83
2022/03/23 02:03:35;;;;;;;;;;;3.30;94.70;;;;;;5016192;28;19917;-84
2022/03/23 02:06:01;;;;;;;;;;;3.30;94.80;;;;;;5032447;28;19913;-84
2022/03/23 02:08:27;;;;;;;;;;;3.30;95.10;;;;;;5032494;28;19913;-84
2022/03/23 02:10:52;;;;;;;;;;;3.30;94.80;;;;;;5037209;28;20383;-84
2022/03/23 02:13:18;;;;;;;;;;;3.20;94.70;;;;;;5012691;28;19921;-84
2022/03/23 02:15:43;;;;;;;;;;;3.20;95.00;;;;;;5018053;28;19921;-84
2022/03/23 02:18:10;;;;;;;;;;;3.20;95.40;;;;;;5048239;28;19917;-83
2022/03/23 02:20:37;;;;;;;;;;;3.20;95.20;;;;;;5016637;28;20011;-84
2022/03/23 02:23:02;;;;;;;;;;;3.10;95.30;;;;;;5031996;28;20007;-84
2022/03/23 02:25:28;;;;;;;;;;;3.10;95.50;;;;;;5033217;28;20371;-83
2022/03/23 02:27:54;;;;;;;;;;;3.10;95.50;;;;;;5033154;28;19916;-84
2022/03/23 02:30:21;;;;;;;;;;;3.20;95.40;;;;;;5032612;28;19920;-83
2022/03/23 02:32:47;;;;;;;;;;;3.10;95.60;;;;;;5032687;28;19912;-84
2022/03/23 02:35:13;;;;;;;;;;;3.10;95.50;;;;;;5032563;28;19919;-84
2022/03/23 02:37:39;;;;;;;;;;;3.10;95.60;;;;;;5049123;28;19998;-84
2022/03/23 02:40:05;;;;;;;;;;;3.00;95.80;;;;;;5033170;28;20341;-84
2022/03/23 02:42:31;;;;;;;;;;;3.00;95.80;;;;;;5049053;28;20007;-83
2022/03/23 02:44:56;;;;;;;;;;;2.90;96.10;;;;;;5032289;28;19913;-84
2022/03/23 02:47:22;;;;;;;;;;;2.90;95.70;;;;;;5036247;28;19912;-84
2022/03/23 02:49:47;;;;;;;;;;;2.90;96.00;;;;;;5019796;28;20363;-84
2022/03/23 02:52:13;;;;;;;;;;;2.80;96.30;;;;;;5052967;28;20288;-83
2022/03/23 03:02:57;;;;;;;;;;;2.70;97.50;;;;;;5058940;28;19923;-84
2022/03/23 03:05:23;;;;;;;;;;;2.70;97.50;;;;;;5052592;28;19921;-84
2022/03/23 03:10:33;;;;;;;;;;;2.80;97.50;;;;;;5041914;28;19928;-84
2022/03/23 03:12:59;;;;;;;;;;;2.80;97.60;;;;;;5020675;28;19916;-84
2022/03/23 03:15:25;;;;;;;;;;;2.80;97.60;;;;;;5036466;28;19924;-84
2022/03/23 03:17:50;;;;;;;;;;;2.80;97.60;;;;;;5036167;28;19917;-84
2022/03/23 03:20:16;;;;;;;;;;;2.80;97.50;;;;;;5035330;28;19944;-84
2022/03/23 03:22:43;;;;;;;;;;;2.80;97.90;;;;;;5037026;28;19913;-84
2022/03/23 03:25:11;;;;;;;;;;;2.80;97.60;;;;;;5052127;28;19963;-84
2022/03/23 03:27:37;;;;;;;;;;;2.70;97.60;;;;;;5041446;28;20007;-85
2022/03/23 03:30:04;;;;;;;;;;;2.70;97.70;;;;;;5051690;28;20019;-83
2022/03/23 03:32:29;;;;;;;;;;;2.70;97.80;;;;;;5051853;28;20375;-84
2022/03/23 03:34:55;;;;;;;;;;;2.70;97.80;;;;;;5035228;28;19919;-84
2022/03/23 03:37:20;;;;;;;;;;;2.70;97.90;;;;;;5018641;28;19928;-84
2022/03/23 03:39:46;;;;;;;;;;;2.60;98.10;;;;;;5053075;28;20394;-84
2022/03/23 03:42:13;;;;;;;;;;;2.60;98.20;;;;;;5045633;28;20295;-84
2022/03/23 03:44:38;;;;;;;;;;;2.60;98.30;;;;;;5035441;28;20325;-84
2022/03/23 03:47:05;;;;;;;;;;;2.60;98.30;;;;;;5018711;28;19921;-84
2022/03/23 03:49:31;;;;;;;;;;;2.60;98.50;;;;;;5017835;28;20265;-84
2022/03/23 03:51:57;;;;;;;;;;;2.50;98.60;;;;;;5038727;28;19924;-84
2022/03/23 03:54:22;;;;;;;;;;;2.40;98.50;;;;;;5034890;28;20361;-84
2022/03/23 03:56:48;;;;;;;;;;;2.40;98.20;;;;;;5035186;28;19917;-84
2022/03/23 03:59:13;;;;;;;;;;;2.30;98.10;;;;;;5022838;28;20486;-85
2022/03/23 04:01:39;;;;;;;;;;;2.30;98.40;;;;;;5027380;28;20311;-85
2022/03/23 04:04:05;;;;;;;;;;;2.20;98.80;;;;;;5033495;28;20619;-85
2022/03/23 04:06:30;;;;;;;;;;;2.20;99.30;;;;;;5027268;28;19913;-86
2022/03/23 04:08:56;;;;;;;;;;;2.10;99.90;;;;;;5059017;28;19924;-85
2022/03/23 04:11:21;;;;;;;;;;;2.10;99.90;;;;;;5034149;28;19920;-85
2022/03/23 04:13:47;;;;;;;;;;;2.10;99.90;;;;;;5031276;28;19992;-85
2022/03/23 04:16:12;;;;;;;;;;;2.10;99.90;;;;;;5065220;28;19928;-85
2022/03/23 04:18:38;;;;;;;;;;;2.10;99.90;;;;;;5066013;28;19948;-85
2022/03/23 04:21:03;;;;;;;;;;;2.10;99.90;;;;;;5060484;28;19927;-85
2022/03/23 04:23:29;;;;;;;;;;;2.00;99.80;;;;;;5018413;28;20155;-85
2022/03/23 04:25:55;;;;;;;;;;;2.00;99.80;;;;;;5020300;28;19916;-84
2022/03/23 04:28:21;;;;;;;;;;;2.00;99.90;;;;;;5015213;28;20383;-84
2022/03/23 04:30:47;;;;;;;;;;;1.90;99.90;;;;;;5018437;28;19920;-84
2022/03/23 04:33:13;;;;;;;;;;;1.90;99.90;;;;;;5035116;28;19916;-84
2022/03/23 04:35:39;;;;;;;;;;;1.80;99.90;;;;;;5035158;28;19913;-84
2022/03/23 04:38:05;;;;;;;;;;;1.80;99.90;;;;;;5018359;28;19951;-84
2022/03/23 04:40:31;;;;;;;;;;;1.70;99.90;;;;;;5042990;28;19912;-83
2022/03/23 04:42:57;;;;;;;;;;;1.70;99.90;;;;;;5039815;28;19913;-84
2022/03/23 04:45:22;;;;;;;;;;;1.70;99.90;;;;;;5017933;28;19928;-83
2022/03/23 04:47:48;;;;;;;;;;;1.70;99.90;;;;;;5033759;28;19913;-83
2022/03/23 04:50:14;;;;;;;;;;;1.70;99.90;;;;;;5016719;28;20315;-83
2022/03/23 04:52:41;;;;;;;;;;;1.60;99.90;;;;;;5050577;28;19936;-83
2022/03/23 04:55:07;;;;;;;;;;;1.60;99.90;;;;;;5033255;28;19912;-83
2022/03/23 04:57:33;;;;;;;;;;;1.60;99.90;;;;;;5033748;28;19919;-84
2022/03/23 04:59:59;;;;;;;;;;;1.60;99.90;;;;;;5033736;28;20291;-83
2022/03/23 05:02:25;;;;;;;;;;;1.60;99.90;;;;;;5050413;28;19920;-83
2022/03/23 05:04:51;;;;;;;;;;;1.60;99.90;;;;;;5050431;28;19917;-83
2022/03/23 05:07:17;;;;;;;;;;;1.70;99.90;;;;;;5033655;28;20390;-83
2022/03/23 05:09:42;;;;;;;;;;;1.70;99.90;;;;;;5049084;28;20100;-83
2022/03/23 05:12:08;;;;;;;;;;;1.70;99.90;;;;;;5033436;28;19918;-83
2022/03/23 05:14:34;;;;;;;;;;;1.70;99.90;;;;;;5033439;28;19927;-83
2022/03/23 05:17:00;;;;;;;;;;;1.70;99.90;;;;;;5014275;28;20010;-83
2022/03/23 05:19:26;;;;;;;;;;;1.70;99.90;;;;;;5025762;28;19975;-83
2022/03/23 05:21:51;;;;;;;;;;;1.70;99.90;;;;;;5013776;28;20057;-83
2022/03/23 05:24:17;;;;;;;;;;;1.70;99.90;;;;;;5016937;28;19940;-83
2022/03/23 05:26:42;;;;;;;;;;;1.70;99.90;;;;;;5033496;28;20078;-83
2022/03/23 05:29:09;;;;;;;;;;;1.70;99.90;;;;;;5033124;28;19921;-83
2022/03/23 05:31:35;;;;;;;;;;;1.70;99.90;;;;;;5033458;28;19970;-83
2022/03/23 05:34:01;;;;;;;;;;;1.70;99.90;;;;;;5049841;28;19921;-83
2022/03/23 05:36:26;;;;;;;;;;;1.70;99.90;;;;;;5049510;28;19947;-83
2022/03/23 05:38:52;;;;;;;;;;;1.70;99.90;;;;;;5013198;28;19917;-84
2022/03/23 05:41:17;;;;;;;;;;;1.60;99.90;;;;;;5016123;28;19968;-83
2022/03/23 05:43:43;;;;;;;;;;;1.60;99.90;;;;;;5016560;28;19952;-83
2022/03/23 05:46:08;;;;;;;;;;;1.60;99.90;;;;;;5016455;28;20311;-83
2022/03/23 05:48:34;;;;;;;;;;;1.70;99.90;;;;;;5032651;28;19912;-83
2022/03/23 05:50:59;;;;;;;;;;;1.80;99.90;;;;;;5016110;28;19925;-83
2022/03/23 05:53:25;;;;;;;;;;;1.80;99.90;;;;;;5016244;28;20379;-83
2022/03/23 05:55:50;;;;;;;;;;;1.90;99.90;;;;;;5065930;28;20430;-83
2022/03/23 05:58:17;;;;;;;;;;;1.90;99.90;;;;;;5049264;28;19916;-83
2022/03/23 06:00:43;;;;;;;;;;;2.00;99.90;;;;;;5016257;28;19931;-83
2022/03/23 06:03:08;;;;;;;;;;;2.00;99.90;;;;;;5049201;28;20007;-83
2022/03/23 06:05:34;;;;;;;;;;;2.00;99.90;;;;;;5013471;28;19917;-83
2022/03/23 06:07:59;;;;;;;;;;;2.10;99.90;;;;;;5049700;28;19970;-83
2022/03/23 06:10:25;;;;;;;;;;;2.10;99.90;;;;;;5032786;28;19920;-83
2022/03/23 06:12:51;;;;;;;;;;;2.20;99.90;;;;;;5032831;28;20413;-84
2022/03/23 06:15:18;;;;;;;;;;;2.20;99.90;;;;;;5056152;28;19923;-84
2022/03/23 06:17:43;;;;;;;;;;;2.30;99.90;;;;;;5042501;28;19944;-85
2022/03/23 06:20:09;;;;;;;;;;;2.30;99.90;;;;;;5042773;28;20145;-84
2022/03/23 06:22:35;;;;;;;;;;;2.30;99.90;;;;;;5023710;28;19917;-84
2022/03/23 06:25:01;;;;;;;;;;;2.40;99.90;;;;;;5044552;28;19917;-84
2022/03/23 06:27:27;;;;;;;;;;;2.40;99.90;;;;;;5025383;28;19917;-85
2022/03/23 06:29:52;;;;;;;;;;;2.40;99.90;;;;;;5044097;28;19912;-83
2022/03/23 06:32:18;;;;;;;;;;;2.50;99.90;;;;;;5046819;28;19916;-83
2022/03/23 06:34:43;;;;;;;;;;;2.50;99.90;;;;;;5064412;28;19920;-84
2022/03/23 06:37:09;;;;;;;;;;;2.60;99.90;;;;;;5047867;28;19921;-84
2022/03/23 06:39:35;;;;;;;;;;;2.60;99.90;;;;;;5065062;28;19924;-83
2022/03/23 06:42:00;;;;;;;;;;;2.70;99.90;;;;;;5048828;28;19921;-85
2022/03/23 06:44:26;;;;;;;;;;;2.90;99.90;;;;;;5049560;28;19913;-84
2022/03/23 06:46:52;;;;;;;;;;;3.00;99.90;;;;;;5030406;28;19948;-84
2022/03/23 06:49:17;;;;;;;;;;;3.00;99.90;;;;;;5034104;28;19925;-85
2022/03/23 06:51:43;;;;;;;;;;;3.20;99.90;;;;;;5035031;28;19917;-84
2022/03/23 06:54:09;;;;;;;;;;;3.30;99.90;;;;;;5032400;28;19913;-84
2022/03/23 06:56:34;;;;;;;;;;;3.40;99.90;;;;;;5032267;28;19913;-84
2022/03/23 06:59:00;;;;;;;;;;;3.40;99.90;;;;;;5016573;28;19921;-84
2022/03/23 07:01:26;;;;;;;;;;;3.50;99.90;;;;;;5024356;28;19909;-84
2022/03/23 07:03:52;;;;;;;;;;;3.50;99.90;;;;;;5013061;28;19916;-85
2022/03/23 07:06:17;;;;;;;;;;;3.60;99.90;;;;;;5012942;28;19910;-84
2022/03/23 07:11:27;;;;;;;;;;;3.70;99.90;;;;;;5056537;28;20033;-84
2022/03/23 07:13:53;;;;;;;;;;;3.80;99.90;;;;;;5032148;28;19941;-83
2022/03/23 07:16:19;;;;;;;;;;;3.90;99.90;;;;;;5031982;28;19921;-83
2022/03/23 07:18:44;;;;;;;;;;;4.00;99.90;;;;;;5031032;28;19920;-84
2022/03/23 07:21:11;;;;;;;;;;;4.10;99.90;;;;;;5028315;28;19986;-84
2022/03/23 07:23:36;;;;;;;;;;;4.20;99.90;;;;;;5048641;28;19924;-84
2022/03/23 07:26:03;;;;;;;;;;;4.30;99.90;;;;;;5031864;28;19936;-84
2022/03/23 07:28:28;;;;;;;;;;;4.40;99.70;;;;;;5048285;28;20290;-83
2022/03/23 07:30:54;;;;;;;;;;;4.60;98.90;;;;;;5015631;28;20012;-84
2022/03/23 07:33:19;;;;;;;;;;;4.70;97.90;;;;;;5017148;28;19921;-84
2022/03/23 07:35:45;;;;;;;;;;;4.80;96.90;;;;;;5019525;28;20430;-84
2022/03/23 07:38:10;;;;;;;;;;;4.90;96.00;;;;;;5036663;28;20402;-84
2022/03/23 07:40:36;;;;;;;;;;;5.10;95.40;;;;;;5035812;28;19920;-83
2022/03/23 07:43:01;;;;;;;;;;;5.20;94.90;;;;;;5068372;28;19924;-83
2022/03/23 07:45:27;;;;;;;;;;;5.30;94.10;;;;;;5052140;28;20050;-83
2022/03/23 07:47:53;;;;;;;;;;;5.40;93.60;;;;;;5035413;28;19962;-83
2022/03/23 07:50:18;;;;;;;;;;;5.50;93.20;;;;;;5051812;28;20417;-83
2022/03/23 07:52:44;;;;;;;;;;;5.60;92.80;;;;;;5034933;28;19996;-83
2022/03/23 07:55:10;;;;;;;;;;;5.70;92.50;;;;;;5019001;28;20043;-82
2022/03/23 07:57:35;;;;;;;;;;;5.80;92.60;;;;;;5035495;28;19960;-83
2022/03/23 08:00:01;;;;;;;;;;;5.90;92.50;;;;;;5034824;28;19910;-83
2022/03/23 08:02:26;;;;;;;;;;;6.00;92.40;;;;;;5017988;28;20310;-83
2022/03/23 08:04:52;;;;;;;;;;;6.10;92.30;;;;;;5052199;28;19924;-83
2022/03/23 08:07:18;;;;;;;;;;;6.20;92.30;;;;;;5035012;28;20425;-83
2022/03/23 08:09:44;;;;;;;;;;;6.30;92.20;;;;;;5047089;28;19921;-86
2022/03/23 08:12:09;;;;;;;;;;;6.40;92.30;;;;;;5025831;28;20236;-82
2022/03/23 08:14:35;;;;;;;;;;;6.50;92.20;;;;;;5033477;28;19921;-85
2022/03/23 08:17:00;;;;;;;;;;;6.60;92.20;;;;;;5018098;28;19923;-85
2022/03/23 08:19:26;;;;;;;;;;;6.70;92.00;;;;;;5034015;28;19908;-84
2022/03/23 08:21:52;;;;;;;;;;;6.90;91.40;;;;;;5035731;28;19913;-84
2022/03/23 08:24:18;;;;;;;;;;;7.00;90.80;;;;;;5035251;28;20050;-84
2022/03/23 08:26:43;;;;;;;;;;;7.10;90.40;;;;;;5034441;28;19909;-84
2022/03/23 08:29:09;;;;;;;;;;;7.30;89.70;;;;;;5034519;28;19920;-84
2022/03/23 08:31:35;;;;;;;;;;;7.40;88.60;;;;;;5017888;28;19983;-84
2022/03/23 08:34:01;;;;;;;;;;;7.50;87.60;;;;;;5034296;28;20025;-85
2022/03/23 08:36:27;;;;;;;;;;;7.60;86.40;;;;;;5034586;28;19955;-85
2022/03/23 08:38:52;;;;;;;;;;;7.70;85.10;;;;;;5034143;28;20044;-84
2022/03/23 08:41:18;;;;;;;;;;;7.90;84.70;;;;;;5014295;28;20012;-82
2022/03/23 08:43:44;;;;;;;;;;;8.00;83.90;;;;;;5017981;28;19924;-84
2022/03/23 08:46:12;;;;;;;;;;;8.10;81.40;;;;;;5016959;28;20299;-85
2022/03/23 08:48:37;;;;;;;;;;;8.30;80.10;;;;;;5014472;28;19924;-84
2022/03/23 08:51:03;;;;;;;;;;;8.40;79.70;;;;;;5031777;28;19920;-85
2022/03/23 08:53:28;;;;;;;;;;;8.50;77.00;;;;;;5050921;28;19924;-85
2022/03/23 08:55:54;;;;;;;;;;;8.60;74.20;;;;;;5050343;28;20008;-84
2022/03/23 08:58:19;;;;;;;;;;;8.70;72.40;;;;;;5049982;28;19925;-84
2022/03/23 09:00:45;;;;;;;;;;;8.90;68.50;;;;;;5034105;28;19916;-84
2022/03/23 09:03:10;;;;;;;;;;;9.00;67.60;;;;;;5033695;28;19917;-85
2022/03/23 09:05:36;;;;;;;;;;;9.10;65.80;;;;;;5034132;28;19952;-83
2022/03/23 09:08:02;;;;;;;;;;;9.20;64.10;;;;;;5034139;28;19913;-84
2022/03/23 09:10:28;;;;;;;;;;;9.30;63.70;;;;;;5033472;28;19956;-83
2022/03/23 09:12:53;;;;;;;;;;;9.40;62.70;;;;;;5033974;28;20062;-85
2022/03/23 09:15:19;;;;;;;;;;;9.50;61.60;;;;;;5050183;28;19917;-84
2022/03/23 09:17:44;;;;;;;;;;;9.60;63.50;;;;;;5037964;28;19912;-85
2022/03/23 09:20:12;;;;;;;;;;;9.80;62.50;;;;;;5027464;28;19927;-84
2022/03/23 09:22:38;;;;;;;;;;;10.00;62.90;;;;;;5021672;28;19917;-84
2022/03/23 09:25:03;;;;;;;;;;;10.20;60.90;;;;;;5033251;28;19919;-84
2022/03/23 09:27:31;;;;;;;;;;;10.40;60.40;;;;;;5033068;28;19957;-84
2022/03/23 09:29:57;;;;;;;;;;;10.50;60.50;;;;;;5049617;28;19925;-84
2022/03/23 09:32:23;;;;;;;;;;;10.70;61.20;;;;;;5013976;28;20429;-84
2022/03/23 09:34:49;;;;;;;;;;;10.80;61.20;;;;;;5017049;28;19920;-83
2022/03/23 09:38:03;;;;;;;;;;;10.90;61.70;;;;;;5033375;28;20338;-84
2022/03/23 09:40:00;;;;;;;;;;;11.00;60.30;;;;;;5042917;28;19924;-84
2022/03/23 09:42:27;;;;;;;;;;;11.20;59.70;;;;;;5016263;28;20302;-84
2022/03/23 09:44:55;;;;;;;;;;;11.30;57.50;;;;;;5017544;28;20363;-82
2022/03/23 09:47:21;;;;;;;;;;;11.40;56.90;;;;;;5016589;28;19932;-84
2022/03/23 09:49:46;;;;;;;;;;;11.50;56.20;;;;;;5015992;28;19925;-84
2022/03/23 09:52:12;;;;;;;;;;;11.60;56.00;;;;;;5013215;28;19921;-84
2022/03/23 09:54:37;;;;;;;;;;;11.80;55.30;;;;;;5032561;28;19956;-84
2022/03/23 09:57:03;;;;;;;;;;;11.90;54.30;;;;;;5013480;28;20027;-84
2022/03/23 09:59:29;;;;;;;;;;;12.00;53.30;;;;;;5016680;28;19925;-84
2022/03/23 10:02:01;;;;;;;;;;;12.10;53.90;;;;;;5014031;28;19913;-84
2022/03/23 10:04:45;;;;;;;;;;;12.20;53.70;;;;;;5034486;28;19976;-84
2022/03/23 10:07:25;;;;;;;;;;;12.30;52.50;;;;;;5033616;28;19916;-84
2022/03/23 10:10:09;;;;;;;;;;;12.40;53.90;;;;;;5033691;28;20007;-84
2022/03/23 10:12:54;;;;;;;;;;;12.60;53.90;;;;;;5024970;28;20453;-85
2022/03/23 10:15:38;;;;;;;;;;;12.80;50.80;;;;;;5024428;28;19917;-84
2022/03/23 10:18:13;;;;;;;;;;;13.00;51.10;;;;;;5028471;28;19917;-85
2022/03/23 10:20:38;;;;;;;;;;;13.20;50.30;;;;;;5034246;28;19920;-84
2022/03/23 10:23:04;;;;;;;;;;;13.30;49.20;;;;;;5018588;28;20306;-84
2022/03/23 10:25:30;;;;;;;;;;;13.40;51.20;;;;;;5016798;28;19921;-85
2022/03/23 10:27:56;;;;;;;;;;;13.50;52.70;;;;;;5017829;28;19923;-85
2022/03/23 10:30:31;;;;;;;;;;;13.60;50.60;;;;;;5019780;28;19932;-84
2022/03/23 10:32:57;;;;;;;;;;;13.60;50.00;;;;;;5036480;28;19920;-85
2022/03/23 10:35:22;;;;;;;;;;;13.70;48.70;;;;;;5052072;28;19925;-85
2022/03/23 10:37:48;;;;;;;;;;;13.80;47.90;;;;;;5035513;28;19961;-84
2022/03/23 10:40:17;;;;;;;;;;;13.90;49.40;;;;;;5018050;28;19938;-84
2022/03/23 10:42:43;;;;;;;;;;;14.00;48.20;;;;;;5038350;28;19952;-85
2022/03/23 10:45:12;;;;;;;;;;;14.20;49.00;;;;;;5036567;28;19921;-86
2022/03/23 10:47:39;;;;;;;;;;;14.20;46.60;;;;;;5035552;28;19912;-85
2022/03/23 10:50:07;;;;;;;;;;;14.30;46.30;;;;;;5035827;28;19912;-85
2022/03/23 10:52:33;;;;;;;;;;;14.40;44.60;;;;;;5071885;28;19999;-84
2022/03/23 10:54:59;;;;;;;;;;;14.50;44.20;;;;;;5058094;28;19948;-85
2022/03/23 10:57:38;;;;;;;;;;;14.50;43.90;;;;;;5041579;28;19913;-84
2022/03/23 11:00:04;;;;;;;;;;;14.50;44.70;;;;;;5033443;28;19969;-84
2022/03/23 11:02:45;;;;;;;;;;;14.60;42.00;;;;;;5024224;28;19920;-84
2022/03/23 11:05:10;;;;;;;;;;;14.70;43.00;;;;;;5041588;28;20538;-85
2022/03/23 11:07:38;;;;;;;;;;;14.80;44.10;;;;;;5061696;28;19923;-85
2022/03/23 11:15:47;;;;;;;;;;;15.00;41.60;;;;;;5062098;28;19919;-85
2022/03/23 11:18:14;;;;;;;;;;;15.10;41.70;;;;;;5038901;28;19924;-86
2022/03/23 11:20:41;;;;;;;;;;;15.20;40.80;;;;;;5024290;28;19925;-86
2022/03/23 11:23:27;;;;;;;;;;;15.30;41.40;;;;;;5040544;28;20000;-86
2022/03/23 11:25:54;;;;;;;;;;;15.30;41.10;;;;;;5039950;28;19973;-86
2022/03/23 11:28:20;;;;;;;;;;;15.40;40.20;;;;;;5040544;28;19932;-86
2022/03/23 11:30:47;;;;;;;;;;;15.50;39.20;;;;;;5025089;28;19924;-86
2022/03/23 11:33:15;;;;;;;;;;;15.60;39.90;;;;;;5024851;28;20413;-86
2022/03/23 11:35:46;;;;;;;;;;;15.70;41.10;;;;;;5025590;28;19913;-86
2022/03/23 11:38:12;;;;;;;;;;;15.70;39.50;;;;;;5024052;28;19920;-86
2022/03/23 11:40:40;;;;;;;;;;;15.80;39.00;;;;;;5025091;28;19921;-86
2022/03/23 11:43:05;;;;;;;;;;;15.80;39.90;;;;;;5042260;28;19956;-86
2022/03/23 11:45:31;;;;;;;;;;;15.90;39.20;;;;;;5025676;28;19913;-86
2022/03/23 11:48:05;;;;;;;;;;;15.90;39.00;;;;;;5028383;28;19924;-85
2022/03/23 11:50:33;;;;;;;;;;;16.00;36.80;;;;;;5048848;28;19913;-85
2022/03/23 11:52:59;;;;;;;;;;;16.10;38.50;;;;;;5016043;28;19921;-85
2022/03/23 11:55:40;;;;;;;;;;;16.10;36.50;;;;;;5048753;28;20360;-85
2022/03/23 11:58:21;;;;;;;;;;;16.10;37.00;;;;;;5048655;28;19963;-86
2022/03/23 12:01:05;;;;;;;;;;;16.10;37.80;;;;;;5032226;28;19913;-85
2022/03/23 12:03:47;;;;;;;;;;;16.20;37.30;;;;;;5032028;28;19915;-85
2022/03/23 12:06:17;;;;;;;;;;;16.10;35.80;;;;;;5048613;28;19928;-85
2022/03/23 12:08:42;;;;;;;;;;;16.20;36.10;;;;;;5031778;28;20027;-85
2022/03/23 12:11:31;;;;;;;;;;;16.20;37.30;;;;;;5048450;28;20398;-85
2022/03/23 12:14:04;;;;;;;;;;;16.20;38.80;;;;;;5021233;28;20287;-85
2022/03/23 12:16:59;;;;;;;;;;;16.30;39.70;;;;;;5031816;28;19917;-85
2022/03/23 12:19:30;;;;;;;;;;;16.30;36.30;;;;;;5047511;28;19955;-85
2022/03/23 12:21:55;;;;;;;;;;;16.40;36.70;;;;;;5015503;28;19913;-85
2022/03/23 12:24:39;;;;;;;;;;;16.50;36.30;;;;;;5048213;28;19915;-85
2022/03/23 12:27:13;;;;;;;;;;;16.50;35.90;;;;;;5047988;28;20287;-85
2022/03/23 12:29:40;;;;;;;;;;;16.50;36.20;;;;;;5031365;28;20355;-85
2022/03/23 12:32:08;;;;;;;;;;;16.60;34.50;;;;;;5031428;28;20327;-85
2022/03/23 12:34:38;;;;;;;;;;;16.60;36.00;;;;;;5031604;28;19952;-83
2022/03/23 12:37:08;;;;;;;;;;;16.70;37.30;;;;;;5031468;28;19967;-85
2022/03/23 12:39:35;;;;;;;;;;;16.70;35.20;;;;;;5031329;28;19916;-85
2022/03/23 12:42:16;;;;;;;;;;;16.70;36.00;;;;;;5014672;28;20358;-84
2022/03/23 12:44:44;;;;;;;;;;;16.70;35.90;;;;;;5047855;28;19924;-84
2022/03/23 12:47:20;;;;;;;;;;;16.70;36.50;;;;;;5031131;28;20356;-84
2022/03/23 12:58:09;;;;;;;;;;;16.80;33.70;;;;;;5032616;28;19920;-84
2022/03/23 13:00:37;;;;;;;;;;;16.80;36.50;;;;;;5030988;28;19936;-84
2022/03/23 13:03:06;;;;;;;;;;;16.80;37.70;;;;;;5047350;28;19909;-84
2022/03/23 13:05:36;;;;;;;;;;;16.90;37.00;;;;;;5047779;28;20308;-84
2022/03/23 13:08:22;;;;;;;;;;;16.90;34.80;;;;;;5030644;28;19913;-84
2022/03/23 13:10:58;;;;;;;;;;;16.90;36.50;;;;;;5047157;28;20426;-84
2022/03/23 13:13:23;;;;;;;;;;;17.00;36.00;;;;;;5058576;28;20701;-84
2022/03/23 13:15:49;;;;;;;;;;;16.90;35.40;;;;;;5033423;28;19927;-83
2022/03/23 13:18:15;;;;;;;;;;;16.90;34.80;;;;;;5066306;28;19913;-85
2022/03/23 13:20:48;;;;;;;;;;;16.90;33.70;;;;;;5033177;28;19913;-86
2022/03/23 13:23:17;;;;;;;;;;;16.90;33.20;;;;;;5049552;28;20430;-85
2022/03/23 13:25:47;;;;;;;;;;;16.90;36.10;;;;;;5048583;28;19921;-86
2022/03/23 13:28:13;;;;;;;;;;;17.00;34.40;;;;;;5033662;28;19913;-85
2022/03/23 13:30:40;;;;;;;;;;;17.00;35.30;;;;;;5032576;28;20280;-86
2022/03/23 13:33:15;;;;;;;;;;;17.00;35.10;;;;;;5033296;28;19913;-85
2022/03/23 13:35:44;;;;;;;;;;;17.00;34.40;;;;;;5047652;28;19917;-84
2022/03/23 13:38:11;;;;;;;;;;;17.10;35.20;;;;;;5032905;28;20417;-84
2022/03/23 13:43:30;;;;;;;;;;;17.10;32.90;;;;;;5046799;28;19966;-85
2022/03/23 13:45:56;;;;;;;;;;;17.00;32.70;;;;;;5033313;28;19917;-84
2022/03/23 13:48:22;;;;;;;;;;;17.00;32.40;;;;;;5016346;28;19982;-85
2022/03/23 13:50:48;;;;;;;;;;;17.00;34.70;;;;;;5049212;28;19920;-82
2022/03/23 13:53:14;;;;;;;;;;;17.00;35.00;;;;;;5032994;28;20382;-84
2022/03/23 13:55:47;;;;;;;;;;;16.90;32.50;;;;;;5066238;28;19917;-85
2022/03/23 13:58:13;;;;;;;;;;;16.90;32.10;;;;;;5048815;28;19913;-85
2022/03/23 14:00:39;;;;;;;;;;;16.90;32.90;;;;;;5032963;28;19920;-85
2022/03/23 14:03:05;;;;;;;;;;;16.90;33.40;;;;;;5016233;28;19917;-85
2022/03/23 14:05:32;;;;;;;;;;;16.90;34.00;;;;;;5050371;28;19979;-86
2022/03/23 14:07:58;;;;;;;;;;;16.90;35.20;;;;;;5034810;28;20007;-85
2022/03/23 14:10:33;;;;;;;;;;;16.90;33.70;;;;;;5034779;28;19920;-86
2022/03/23 14:13:03;;;;;;;;;;;16.90;33.60;;;;;;5034201;28;19916;-86
2022/03/23 14:15:30;;;;;;;;;;;17.00;34.80;;;;;;5035927;28;19944;-86
2022/03/23 14:17:57;;;;;;;;;;;17.00;34.60;;;;;;5051314;28;19913;-86
2022/03/23 14:20:23;;;;;;;;;;;16.90;32.70;;;;;;5066066;28;20059;-86
2022/03/23 14:22:50;;;;;;;;;;;16.90;32.90;;;;;;5049584;28;19913;-85
2022/03/23 14:25:18;;;;;;;;;;;16.90;33.50;;;;;;5013493;28;19913;-85
2022/03/23 14:27:45;;;;;;;;;;;16.90;34.00;;;;;;5032239;28;20406;-84
2022/03/23 14:30:11;;;;;;;;;;;17.00;34.50;;;;;;5048599;28;19913;-82
2022/03/23 14:32:42;;;;;;;;;;;17.00;35.80;;;;;;5032536;28;19964;-86
2022/03/23 14:35:08;;;;;;;;;;;16.90;36.80;;;;;;5012971;28;19951;-85
2022/03/23 14:37:34;;;;;;;;;;;16.90;37.30;;;;;;5030945;28;20303;-87
2022/03/23 14:40:01;;;;;;;;;;;16.90;36.60;;;;;;5065812;28;19912;-86
2022/03/23 14:42:33;;;;;;;;;;;16.90;34.90;;;;;;5034972;28;19916;-86
2022/03/23 14:45:02;;;;;;;;;;;16.80;35.40;;;;;;5062157;28;20431;-86
2022/03/23 14:47:47;;;;;;;;;;;16.80;35.20;;;;;;5018443;28;19928;-88
2022/03/23 14:50:12;;;;;;;;;;;16.80;32.60;;;;;;5052944;28;19927;-85
2022/03/23 14:52:38;;;;;;;;;;;16.80;34.00;;;;;;5016676;28;20004;-85
2022/03/23 14:55:04;;;;;;;;;;;16.80;32.90;;;;;;5016602;28;19920;-86
2022/03/23 14:57:29;;;;;;;;;;;16.80;32.10;;;;;;5016276;28;20331;-86